createdAt,value
2024-05-09T00:00:48.038Z,16.10
2024-05-09T00:03:36.397Z,16.15
2024-05-09T00:06:05.025Z,16.16
2024-05-09T00:08:33.637Z,16.12
2024-05-09T00:11:02.091Z,16.21
2024-05-09T00:13:30.216Z,16.30
2024-05-09T00:15:59.730Z,16.34
2024-05-09T00:18:28.095Z,16.43
2024-05-09T00:20:56.298Z,16.52
2024-05-09T00:23:24.791Z,16.59
2024-05-09T00:25:52.859Z,16.56
2024-05-09T00:28:21.342Z,16.55
2024-05-09T00:30:49.664Z,16.52
2024-05-09T00:33:17.916Z,16.54
2024-05-09T00:35:46.179Z,16.51
2024-05-09T00:38:14.246Z,16.49
2024-05-09T00:40:43.741Z,16.52
2024-05-09T00:43:13.915Z,16.46
2024-05-09T00:45:44.011Z,16.40
2024-05-09T00:48:18.856Z,16.38
2024-05-09T00:50:49.973Z,16.24
2024-05-09T00:53:18.997Z,16.16
2024-05-09T00:55:47.958Z,16.05
2024-05-09T00:58:18.269Z,15.94
2024-05-09T01:00:46.657Z,15.81
2024-05-09T01:03:14.927Z,15.80
2024-05-09T01:05:44.396Z,15.85
2024-05-09T01:08:13.426Z,15.95
2024-05-09T01:10:44.275Z,16.07
2024-05-09T01:13:14.104Z,16.09
2024-05-09T01:15:43.391Z,16.03
2024-05-09T01:18:14.450Z,15.94
2024-05-09T01:20:44.770Z,15.77
2024-05-09T01:23:15.812Z,15.68
2024-05-09T01:25:46.525Z,15.59
2024-05-09T01:28:15.958Z,15.51
2024-05-09T01:30:44.102Z,15.46
2024-05-09T01:33:13.200Z,15.35
2024-05-09T01:35:42.894Z,15.33
2024-05-09T01:38:13.241Z,15.33
2024-05-09T01:40:43.416Z,15.22
2024-05-09T01:43:12.315Z,15.16
2024-05-09T01:45:41.270Z,15.14
2024-05-09T01:48:10.749Z,15.12
2024-05-09T01:50:42.412Z,15.08
2024-05-09T01:53:13.772Z,15.08
2024-05-09T01:55:43.226Z,15.18
2024-05-09T01:58:11.514Z,15.19
2024-05-09T02:00:43.495Z,15.24
2024-05-09T02:03:16.593Z,15.25
2024-05-09T02:05:50.196Z,15.25
2024-05-09T02:08:21.111Z,15.20
2024-05-09T02:10:50.491Z,15.02
2024-05-09T02:13:19.284Z,14.78
2024-05-09T02:15:51.916Z,14.50
2024-05-09T02:18:23.087Z,14.26
2024-05-09T02:20:51.549Z,14.15
2024-05-09T02:23:20.006Z,14.03
2024-05-09T02:25:48.299Z,13.94
2024-05-09T02:28:16.639Z,13.90
2024-05-09T02:30:44.688Z,13.93
2024-05-09T02:33:14.389Z,13.97
2024-05-09T02:35:44.223Z,13.99
2024-05-09T02:38:13.590Z,14.01
2024-05-09T02:40:43.783Z,13.95
2024-05-09T02:43:13.131Z,13.78
2024-05-09T02:45:42.157Z,13.69
2024-05-09T02:48:11.045Z,13.51
2024-05-09T02:50:44.033Z,13.42
2024-05-09T02:53:13.832Z,13.45
2024-05-09T02:55:43.164Z,13.46
2024-05-09T02:58:11.887Z,13.46
2024-05-09T03:00:42.195Z,13.38
2024-05-09T03:03:14.279Z,13.23
2024-05-09T03:05:45.783Z,13.07
2024-05-09T03:08:14.464Z,13.01
2024-05-09T03:10:43.014Z,13.09
2024-05-09T03:13:14.840Z,13.23
2024-05-09T03:15:45.564Z,13.35
2024-05-09T03:18:15.726Z,13.41
2024-05-09T03:20:44.676Z,13.45
2024-05-09T03:23:13.150Z,13.48
2024-05-09T03:25:41.489Z,13.49
2024-05-09T03:28:11.170Z,13.54
2024-05-09T03:30:42.339Z,13.70
2024-05-09T03:33:20.566Z,13.85
2024-05-09T03:35:49.698Z,13.90
2024-05-09T03:38:18.690Z,13.89
2024-05-09T03:40:50.984Z,13.89
2024-05-09T03:43:20.205Z,13.95
2024-05-09T03:45:50.547Z,14.04
2024-05-09T03:48:18.984Z,14.09
2024-05-09T03:50:47.726Z,14.12
2024-05-09T03:53:16.403Z,14.15
2024-05-09T03:55:48.609Z,14.25
2024-05-09T03:58:17.034Z,14.32
2024-05-09T04:00:45.588Z,14.35
2024-05-09T04:03:13.958Z,14.41
2024-05-09T04:05:45.800Z,14.42
2024-05-09T04:08:15.401Z,14.43
2024-05-09T04:10:44.459Z,14.44
2024-05-09T04:13:12.684Z,14.47
2024-05-09T04:15:40.970Z,14.47
2024-05-09T04:18:09.691Z,14.53
2024-05-09T04:20:41.065Z,14.64
2024-05-09T04:23:14.636Z,14.80
2024-05-09T04:25:45.134Z,14.84
2024-05-09T04:28:14.462Z,14.67
2024-05-09T04:30:43.358Z,14.59
2024-05-09T04:33:13.714Z,14.70
2024-05-09T04:35:43.749Z,14.77
2024-05-09T04:38:14.575Z,14.85
2024-05-09T04:40:44.188Z,14.81
2024-05-09T04:43:16.050Z,14.74
2024-05-09T04:45:45.191Z,14.69
2024-05-09T04:48:14.270Z,14.68
2024-05-09T04:50:42.992Z,14.81
2024-05-09T04:53:16.240Z,14.98
2024-05-09T04:55:45.171Z,15.12
2024-05-09T04:58:13.494Z,15.11
2024-05-09T05:00:42.054Z,15.01
2024-05-09T05:03:14.427Z,14.96
2024-05-09T05:05:46.374Z,14.89
2024-05-09T05:08:17.529Z,14.76
2024-05-09T05:10:48.707Z,14.73
2024-05-09T05:13:21.610Z,14.71
2024-05-09T05:15:55.603Z,14.78
2024-05-09T05:18:24.950Z,14.83
2024-05-09T05:20:53.704Z,14.85
2024-05-09T05:23:23.857Z,14.79
2024-05-09T05:25:55.365Z,14.84
2024-05-09T05:28:24.031Z,14.84
2024-05-09T05:30:52.113Z,14.82
2024-05-09T05:33:22.293Z,14.79
2024-05-09T05:35:51.172Z,14.79
2024-05-09T05:38:21.943Z,14.92
2024-05-09T05:40:52.310Z,14.83
2024-05-09T05:43:20.710Z,14.90
2024-05-09T05:45:48.997Z,14.96
2024-05-09T05:48:17.943Z,14.94
2024-05-09T05:50:46.893Z,14.96
2024-05-09T05:53:15.159Z,15.10
2024-05-09T05:55:43.619Z,15.15
2024-05-09T05:58:13.106Z,15.22
2024-05-09T06:00:42.385Z,15.26
2024-05-09T06:03:14.553Z,15.23
2024-05-09T06:05:45.510Z,15.25
2024-05-09T06:08:14.187Z,15.24
2024-05-09T06:10:42.817Z,15.26
2024-05-09T06:13:13.145Z,15.42
2024-05-09T06:15:42.479Z,15.46
2024-05-09T06:18:12.468Z,15.42
2024-05-09T06:20:43.595Z,15.16
2024-05-09T06:23:14.772Z,15.02
2024-05-09T06:25:44.034Z,15.01
2024-05-09T06:28:12.578Z,15.12
2024-05-09T06:30:42.602Z,15.30
2024-05-09T06:33:14.170Z,15.35
2024-05-09T06:35:46.156Z,15.26
2024-05-09T06:38:14.791Z,15.23
2024-05-09T06:40:44.205Z,15.16
2024-05-09T06:43:15.039Z,15.23
2024-05-09T06:45:46.068Z,15.36
2024-05-09T06:48:14.530Z,15.36
2024-05-09T06:50:42.981Z,15.26
2024-05-09T06:53:14.274Z,15.16
2024-05-09T06:55:43.096Z,14.97
2024-05-09T06:58:11.228Z,14.88
2024-05-09T07:00:42.097Z,14.86
2024-05-09T07:03:13.675Z,14.81
2024-05-09T07:05:45.466Z,14.73
2024-05-09T07:08:14.617Z,14.82
2024-05-09T07:10:43.168Z,14.99
2024-05-09T07:13:13.574Z,15.07
2024-05-09T07:15:43.302Z,15.19
2024-05-09T07:18:13.933Z,15.36
2024-05-09T07:20:42.911Z,15.46
2024-05-09T07:23:12.657Z,15.58
2024-05-09T07:25:41.737Z,15.55
2024-05-09T07:28:17.186Z,15.44
2024-05-09T07:30:45.825Z,15.46
2024-05-09T07:33:19.898Z,15.49
2024-05-09T07:35:49.734Z,15.59
2024-05-09T07:38:18.330Z,15.68
2024-05-09T07:40:46.922Z,15.71
2024-05-09T07:43:15.896Z,15.64
2024-05-09T07:45:52.256Z,15.65
2024-05-09T07:52:38.948Z,15.66
2024-05-09T07:53:48.159Z,15.68
2024-05-09T07:56:22.302Z,15.69
2024-05-09T07:58:55.835Z,15.72
2024-05-09T08:01:26.240Z,15.61
2024-05-09T08:03:55.678Z,15.54
2024-05-09T08:06:24.307Z,15.48
2024-05-09T08:08:52.811Z,15.51
2024-05-09T08:11:21.094Z,15.52
2024-05-09T08:13:49.352Z,15.56
2024-05-09T08:16:17.683Z,15.55
2024-05-09T08:18:45.871Z,15.54
2024-05-09T08:21:14.196Z,15.59
2024-05-09T08:23:42.319Z,15.70
2024-05-09T08:26:10.305Z,15.72
2024-05-09T08:28:38.250Z,15.73
2024-05-09T08:31:07.309Z,15.81
2024-05-09T08:33:36.233Z,15.86
2024-05-09T08:36:04.925Z,15.95
2024-05-09T08:38:33.301Z,16.18
2024-05-09T08:41:04.289Z,16.32
2024-05-09T08:43:32.578Z,16.37
2024-05-09T08:46:04.047Z,16.36
2024-05-09T08:48:36.587Z,16.42
2024-05-09T08:51:06.455Z,16.41
2024-05-09T08:53:34.744Z,16.47
2024-05-09T08:56:03.492Z,16.45
2024-05-09T08:58:33.273Z,16.37
2024-05-09T09:01:04.068Z,16.37
2024-05-09T09:03:36.827Z,16.35
2024-05-09T09:06:11.649Z,16.28
2024-05-09T09:08:40.855Z,16.21
2024-05-09T09:11:09.036Z,16.13
2024-05-09T09:13:38.390Z,16.06
2024-05-09T09:16:07.002Z,16.19
2024-05-09T09:18:35.494Z,16.26
2024-05-09T09:21:04.835Z,16.30
2024-05-09T09:23:33.507Z,16.34
2024-05-09T09:26:01.980Z,16.33
2024-05-09T09:28:30.251Z,16.31
2024-05-09T09:31:05.473Z,16.33
2024-05-09T09:33:36.151Z,16.34
2024-05-09T09:36:07.580Z,16.33
2024-05-09T09:38:37.711Z,16.35
2024-05-09T09:41:12.630Z,16.34
2024-05-09T09:43:42.224Z,16.20
2024-05-09T09:46:12.964Z,16.04
2024-05-09T09:48:42.704Z,16.02
2024-05-09T09:51:11.478Z,15.96
2024-05-09T09:53:39.955Z,15.91
2024-05-09T09:56:10.313Z,15.95
2024-05-09T09:58:40.118Z,15.97
2024-05-09T10:01:08.504Z,15.94
2024-05-09T10:03:37.176Z,15.88
2024-05-09T10:06:06.832Z,15.78
2024-05-09T10:08:36.286Z,15.75
2024-05-09T10:11:04.636Z,15.77
2024-05-09T10:13:34.738Z,15.75
2024-05-09T10:16:11.199Z,15.71
2024-05-09T10:18:40.165Z,15.61
2024-05-09T10:21:20.871Z,15.52
2024-05-09T10:24:06.901Z,15.48
2024-05-09T10:26:38.237Z,15.37
2024-05-09T10:29:12.851Z,15.26
2024-05-09T10:31:42.334Z,15.29
2024-05-09T10:34:21.325Z,15.33
2024-05-09T10:36:54.234Z,15.42
2024-05-09T10:39:25.611Z,15.40
2024-05-09T10:41:55.948Z,15.29
2024-05-09T10:44:24.469Z,15.32
2024-05-09T10:46:54.902Z,15.19
2024-05-09T10:49:23.719Z,15.13
2024-05-09T10:51:52.956Z,15.08
2024-05-09T10:54:21.518Z,14.92
2024-05-09T10:56:56.566Z,14.91
2024-05-09T10:59:24.728Z,14.94
2024-05-09T11:01:53.292Z,14.85
2024-05-09T11:04:21.772Z,14.76
2024-05-09T11:06:50.144Z,14.58
2024-05-09T11:09:18.221Z,14.34
2024-05-09T11:11:46.652Z,14.23
2024-05-09T11:14:14.939Z,14.18
2024-05-09T11:16:43.060Z,14.15
2024-05-09T11:19:13.877Z,14.18
2024-05-09T11:21:42.216Z,14.26
2024-05-09T11:24:11.594Z,14.38
2024-05-09T11:26:39.967Z,14.37
2024-05-09T11:29:08.385Z,14.38
2024-05-09T11:31:46.877Z,14.37
2024-05-09T11:34:16.235Z,14.41
2024-05-09T11:36:44.524Z,14.45
2024-05-09T11:39:14.454Z,14.43
2024-05-09T11:41:42.519Z,14.53
2024-05-09T11:44:10.733Z,14.71
2024-05-09T11:46:38.846Z,14.84
2024-05-09T11:49:08.687Z,14.92
2024-05-09T11:51:36.930Z,15.05
2024-05-09T11:54:05.021Z,15.23
2024-05-09T11:56:33.210Z,15.41
2024-05-09T11:59:01.495Z,15.58
2024-05-09T12:01:29.997Z,15.64
2024-05-09T12:03:58.633Z,15.73
2024-05-09T12:06:27.125Z,15.80
2024-05-09T12:08:56.277Z,15.89
2024-05-09T12:11:24.483Z,15.95
2024-05-09T12:13:52.615Z,16.01
2024-05-09T12:16:21.269Z,15.98
2024-05-09T12:18:49.583Z,15.92
2024-05-09T12:21:17.854Z,15.92
2024-05-09T12:23:46.076Z,15.93
2024-05-09T12:26:15.708Z,15.96
2024-05-09T12:28:44.077Z,15.89
2024-05-09T12:31:12.409Z,15.86
2024-05-09T12:33:40.779Z,15.84
2024-05-09T12:36:09.119Z,15.85
2024-05-09T12:38:37.279Z,15.83
2024-05-09T12:41:05.841Z,15.73
2024-05-09T12:43:57.014Z,15.49
2024-05-09T12:46:28.378Z,15.40
2024-05-09T12:49:01.805Z,15.48
2024-05-09T12:54:43.498Z,15.66
2024-05-09T12:57:38.933Z,15.83
2024-05-09T13:00:41.677Z,15.83
2024-05-09T13:03:13.944Z,15.82
2024-05-09T13:05:47.292Z,15.87
2024-05-09T13:08:16.005Z,15.91
2024-05-09T13:10:47.324Z,15.88
2024-05-09T13:13:15.514Z,15.92
2024-05-09T13:15:43.850Z,15.95
2024-05-09T13:18:12.317Z,15.92
2024-05-09T13:20:40.532Z,15.79
2024-05-09T13:23:14.166Z,15.75
2024-05-09T13:25:42.341Z,15.74
2024-05-09T13:28:10.752Z,15.79
2024-05-09T13:30:41.611Z,15.89
2024-05-09T13:33:14.312Z,16.03
2024-05-09T13:35:49.488Z,16.15
2024-05-09T13:38:21.374Z,16.33
2024-05-09T13:40:53.301Z,16.44
2024-05-09T13:43:23.253Z,16.65
2024-05-09T13:45:54.323Z,16.79
2024-05-09T13:48:22.557Z,16.88
2024-05-09T13:51:03.217Z,17.00
2024-05-09T13:53:31.406Z,17.01
2024-05-09T13:56:00.017Z,16.93
2024-05-09T13:58:28.386Z,17.01
2024-05-09T14:00:56.757Z,17.13
2024-05-09T14:03:27.014Z,17.37
2024-05-09T14:05:56.250Z,17.59
2024-05-09T14:08:25.959Z,17.63
2024-05-09T14:10:54.295Z,17.97
2024-05-09T14:13:22.969Z,18.20
2024-05-09T14:15:51.631Z,18.33
2024-05-09T14:18:20.156Z,18.44
2024-05-09T14:20:48.198Z,18.35
2024-05-09T14:23:17.979Z,18.22
2024-05-09T14:25:49.056Z,18.33
2024-05-09T14:28:21.743Z,18.54
2024-05-09T14:30:50.705Z,18.67
2024-05-09T14:33:25.102Z,18.65
2024-05-09T14:35:54.176Z,18.44
2024-05-09T14:38:23.651Z,18.35
2024-05-09T14:40:52.113Z,18.57
2024-05-09T14:43:20.339Z,18.76
2024-05-09T14:45:48.598Z,18.88
2024-05-09T14:48:17.671Z,18.92
2024-05-09T14:50:46.099Z,18.76
2024-05-09T14:53:14.310Z,18.93
2024-05-09T14:55:43.709Z,19.13
2024-05-09T14:58:13.553Z,19.27
2024-05-09T15:00:49.827Z,19.41
2024-05-09T15:03:20.242Z,19.38
2024-05-09T15:05:50.358Z,18.90
2024-05-09T15:08:19.481Z,18.78
2024-05-09T15:10:49.622Z,18.79
2024-05-09T15:13:21.761Z,18.91
2024-05-09T15:15:50.247Z,18.45
2024-05-09T15:18:18.959Z,17.76
2024-05-09T15:20:48.317Z,17.29
2024-05-09T15:23:16.634Z,16.42
2024-05-09T15:25:44.882Z,16.58
2024-05-09T15:28:13.365Z,16.49
2024-05-09T15:30:45.231Z,16.02
2024-05-09T15:33:15.520Z,15.96
2024-05-09T15:35:46.150Z,15.94
2024-05-09T15:38:15.547Z,15.85
2024-05-09T15:40:43.957Z,15.90
2024-05-09T15:43:12.709Z,16.12
2024-05-09T15:45:41.564Z,16.32
2024-05-09T15:48:10.565Z,16.50
2024-05-09T15:50:41.528Z,16.52
2024-05-09T15:53:13.277Z,16.59
2024-05-09T15:55:43.299Z,16.71
2024-05-09T15:58:12.563Z,16.78
2024-05-09T16:00:44.818Z,16.68
2024-05-09T16:03:16.732Z,16.45
2024-05-09T16:05:46.359Z,16.51
2024-05-09T16:08:15.974Z,16.62
2024-05-09T16:10:47.398Z,16.39
2024-05-09T16:13:19.738Z,15.55
2024-05-09T16:15:50.601Z,15.14
2024-05-09T16:18:25.191Z,14.79
2024-05-09T16:21:00.024Z,14.29
2024-05-09T16:23:29.362Z,14.30
2024-05-09T16:25:58.266Z,14.32
2024-05-09T16:28:27.225Z,14.28
2024-05-09T16:30:55.315Z,14.28
2024-05-09T16:33:26.010Z,14.20
2024-05-09T16:35:54.874Z,14.15
2024-05-09T16:38:23.243Z,14.15
2024-05-09T16:40:51.970Z,14.21
2024-05-09T16:43:20.235Z,14.26
2024-05-09T16:45:49.269Z,14.02
2024-05-09T16:48:17.935Z,13.84
2024-05-09T16:50:46.525Z,13.77
2024-05-09T16:53:14.815Z,13.87
2024-05-09T16:55:42.806Z,13.82
2024-05-09T16:58:12.683Z,13.82
2024-05-09T17:00:43.407Z,13.87
2024-05-09T17:03:15.422Z,13.93
2024-05-09T17:05:46.862Z,13.95
2024-05-09T17:08:22.719Z,13.95
2024-05-09T17:10:51.316Z,13.89
2024-05-09T17:13:20.430Z,13.93
2024-05-09T17:15:50.215Z,14.05
2024-05-09T17:18:23.806Z,14.12
2024-05-09T17:20:54.738Z,14.16
2024-05-09T17:23:23.942Z,14.22
2024-05-09T17:25:52.112Z,14.37
2024-05-09T17:28:20.517Z,14.56
2024-05-09T17:30:49.184Z,14.79
2024-05-09T17:33:17.658Z,14.98
2024-05-09T17:35:50.600Z,15.11
2024-05-09T17:38:19.428Z,15.12
2024-05-09T17:40:47.694Z,15.17
2024-05-09T17:43:15.835Z,15.20
2024-05-09T17:45:44.442Z,15.15
2024-05-09T17:48:12.949Z,15.24
2024-05-09T17:50:42.076Z,15.37
2024-05-09T17:53:11.245Z,15.51
2024-05-09T17:55:40.645Z,15.55
2024-05-09T17:58:11.108Z,15.48
2024-05-09T18:00:42.031Z,15.33
2024-05-09T18:03:12.507Z,15.18
2024-05-09T18:05:44.399Z,15.09
2024-05-09T18:08:13.979Z,15.06
2024-05-09T18:10:43.037Z,14.89
2024-05-09T18:13:12.078Z,14.71
2024-05-09T18:15:41.186Z,14.59
2024-05-09T18:18:12.043Z,14.41
2024-05-09T18:20:44.570Z,14.21
2024-05-09T18:23:16.526Z,14.29
2024-05-09T18:25:47.497Z,14.33
2024-05-09T18:28:17.064Z,14.28
2024-05-09T18:30:46.227Z,14.22
2024-05-09T18:33:15.056Z,14.15
2024-05-09T18:35:45.017Z,14.17
2024-05-09T18:38:13.379Z,14.29
2024-05-09T18:40:43.956Z,14.33
2024-05-09T18:43:14.793Z,14.39
2024-05-09T18:45:42.996Z,14.40
2024-05-09T18:48:12.294Z,14.42
2024-05-09T18:50:41.603Z,14.24
2024-05-09T18:53:12.411Z,14.21
2024-05-09T18:55:44.901Z,14.29
2024-05-09T18:58:13.458Z,14.47
2024-05-09T19:00:45.200Z,14.58
2024-05-09T19:03:15.998Z,14.46
2024-05-09T19:05:46.386Z,14.41
2024-05-09T19:08:15.818Z,14.38
2024-05-09T19:10:47.444Z,14.38
2024-05-09T19:13:16.569Z,14.30
2024-05-09T19:15:45.261Z,14.19
2024-05-09T19:18:14.543Z,13.90
2024-05-09T19:20:44.187Z,13.82
2024-05-09T19:23:13.167Z,13.66
2024-05-09T19:25:41.532Z,13.46
2024-05-09T19:28:10.051Z,13.38
2024-05-09T19:30:41.588Z,13.38
2024-05-09T19:33:13.123Z,13.28
2024-05-09T19:35:43.829Z,13.26
2024-05-09T19:38:12.951Z,13.30
2024-05-09T19:40:41.419Z,13.33
2024-05-09T19:43:10.315Z,13.38
2024-05-09T19:45:39.000Z,13.41
2024-05-09T19:48:07.921Z,13.39
2024-05-09T19:50:42.059Z,13.39
2024-05-09T19:53:14.632Z,13.45
2024-05-09T19:55:43.453Z,13.52
2024-05-09T19:58:12.803Z,13.56
2024-05-09T20:00:43.670Z,13.56
2024-05-09T20:03:14.476Z,13.56
2024-05-09T20:05:46.657Z,13.64
2024-05-09T20:08:15.624Z,13.74
2024-05-09T20:10:44.193Z,13.68
2024-05-09T20:13:13.873Z,13.77
2024-05-09T20:15:42.494Z,13.83
2024-05-09T20:18:10.888Z,13.82
2024-05-09T20:20:42.495Z,13.85
2024-05-09T20:23:13.231Z,13.83
2024-05-09T20:25:42.356Z,13.73
2024-05-09T20:28:11.004Z,13.70
2024-05-09T20:30:39.677Z,13.71
2024-05-09T20:33:09.205Z,13.67
2024-05-09T20:35:38.336Z,13.67
2024-05-09T20:38:06.811Z,13.76
2024-05-09T20:40:37.905Z,13.76
2024-05-09T20:43:09.743Z,13.37
2024-05-09T20:45:39.040Z,12.89
2024-05-09T20:48:09.081Z,12.85
2024-05-09T20:50:40.945Z,12.97
2024-05-09T20:53:13.846Z,13.03
2024-05-09T20:55:44.668Z,13.07
2024-05-09T20:58:14.029Z,13.06
2024-05-09T21:00:45.175Z,13.07
2024-05-09T21:03:16.750Z,12.89
2024-05-09T21:05:47.412Z,13.01
2024-05-09T21:08:16.535Z,13.04
2024-05-09T21:10:44.742Z,13.09
2024-05-09T21:13:13.272Z,13.04
2024-05-09T21:15:41.610Z,13.00
2024-05-09T21:18:09.857Z,12.94
2024-05-09T21:20:38.311Z,12.93
2024-05-09T21:23:06.419Z,13.04
2024-05-09T21:25:34.548Z,13.03
2024-05-09T21:28:02.966Z,13.00
2024-05-09T21:30:38.876Z,13.00
2024-05-09T21:33:12.894Z,13.01
2024-05-09T21:35:43.413Z,13.02
2024-05-09T21:38:15.864Z,13.01
2024-05-09T21:40:44.750Z,13.00
2024-05-09T21:43:14.336Z,12.95
2024-05-09T21:45:43.042Z,12.55
2024-05-09T21:48:13.312Z,12.36
2024-05-09T21:50:42.646Z,12.42
2024-05-09T21:53:12.530Z,12.46
2024-05-09T21:55:42.627Z,12.56
2024-05-09T21:58:13.935Z,12.62
2024-05-09T22:00:45.537Z,12.42
2024-05-09T22:03:14.403Z,12.26
2024-05-09T22:05:44.972Z,12.27
2024-05-09T22:08:13.708Z,12.20
2024-05-09T22:10:41.994Z,12.17
2024-05-09T22:13:10.373Z,12.21
2024-05-09T22:15:40.070Z,12.23
2024-05-09T22:18:10.817Z,12.33
2024-05-09T22:20:45.518Z,12.39
2024-05-09T22:23:15.585Z,12.40
2024-05-09T22:25:44.296Z,12.50
2024-05-09T22:28:17.372Z,12.52
2024-05-09T22:30:46.741Z,12.53
2024-05-09T22:33:15.720Z,12.38
2024-05-09T22:35:44.245Z,12.38
2024-05-09T22:38:12.421Z,12.39
2024-05-09T22:40:47.353Z,12.30
2024-05-09T22:43:21.112Z,12.28
2024-05-09T22:45:51.464Z,12.21
2024-05-09T22:48:20.372Z,11.96
2024-05-09T22:50:48.778Z,11.86
2024-05-09T22:53:18.469Z,11.86
2024-05-09T22:55:46.550Z,11.84
2024-05-09T22:58:14.607Z,11.90
2024-05-09T23:00:42.902Z,11.87
2024-05-09T23:03:11.531Z,11.76
2024-05-09T23:05:39.853Z,11.55
2024-05-09T23:08:08.633Z,11.34
2024-05-09T23:10:38.073Z,11.11
2024-05-09T23:13:07.993Z,11.10
2024-05-09T23:15:38.349Z,11.03
2024-05-09T23:18:08.047Z,11.00
2024-05-09T23:20:39.379Z,11.09
2024-05-09T23:23:10.247Z,11.25
2024-05-09T23:25:41.562Z,11.18
2024-05-09T23:28:10.923Z,11.14
2024-05-09T23:30:40.963Z,11.13
2024-05-09T23:33:14.758Z,11.06
2024-05-09T23:35:44.151Z,11.23
2024-05-09T23:38:13.521Z,11.42
2024-05-09T23:40:42.896Z,11.62
2024-05-09T23:43:13.080Z,11.85
2024-05-09T23:45:43.150Z,12.06
2024-05-09T23:48:11.624Z,12.20
2024-05-09T23:50:40.863Z,12.23
2024-05-09T23:53:10.646Z,12.20
2024-05-09T23:55:39.751Z,12.15
2024-05-09T23:58:09.536Z,12.08
